Glenrothes, United Kingdom
Current Conditions -  °F | °C
As of 10:50 AM on Wednesday 26 Nov 2014 (Local Time) from EGQL Reporting Station
Haze Haze  
Wind Chill: 39°   Ceiling: 3800
Heat Index: 39°   Visibility: 5mi
Dew Point: 39°   Wind: 0mph
Humidity: 100%   Direction: NA
Pressure: 30"   Gusts: NA
Location:  56.2°N, 3.17°W
Report Text: EGQL 261050Z 00000KT 8000 BR BKN038 SCT050 04/04 Q1016 BLU
Loading
Personal Weather Stations






























Interactive Weather Map New forecast layout! Learn more

10-Day Weather Forecast

Advertisements
Track Severe Weather on mobile